Time;durP1;ratioP1;P1;durP2;ratioP2;P2;SDS_P1;SDS_P2;PMS_P1;PMS_P2;Temp;Humidity;BMP_temperature;BMP_pressure;BME280_temperature;BME280_humidity;BME280_pressure;Samples;Min_cycle;Max_cycle;Signal;HPM_P1;HPM_P2
2022/02/07 00:01:33;;;;;;;;;;;;;;;5.93;100.00;96353.59;1646142;87;26143;-82
2022/02/07 00:03:56;;;;;;;;;;;;;;;5.90;100.00;96353.36;1641750;85;24475;-83
2022/02/07 00:06:18;;;;;;;;;;;;;;;5.91;100.00;96353.72;1646639;86;20375;-83
2022/02/07 00:08:46;;;;;;;;;;;;;;;5.91;100.00;96353.72;1646783;87;24729;-83
2022/02/07 00:11:12;;;;;;;;;;;;;;;5.89;100.00;96351.23;1646062;87;22175;-82
2022/02/07 00:13:41;;;;;;;;;;;;;;;5.87;100.00;96341.48;1647746;87;26328;-90
2022/02/07 00:16:07;;;;;;;;;;;;;;;5.89;100.00;96340.86;1648181;87;25254;-85
2022/02/07 00:18:37;;;;;;;;;;;;;;;5.89;100.00;96334.36;1646892;87;20310;-85
2022/02/07 00:21:18;;;;;;;;;;;;;;;5.87;100.00;96333.69;1645490;87;24806;-90
2022/02/07 00:23:45;;;;;;;;;;;;;;;5.88;100.00;96336.64;1646188;87;22647;-88
2022/02/07 00:26:11;;;;;;;;;;;;;;;5.87;100.00;96325.08;1647871;87;26084;-88
2022/02/07 00:28:37;;;;;;;;;;;;;;;5.86;100.00;96330.71;1648379;85;24425;-82
2022/02/07 00:31:04;;;;;;;;;;;;;;;5.87;100.00;96328.98;1646614;87;20238;-83
2022/02/07 00:33:32;;;;;;;;;;;;;;;5.88;100.00;96337.11;1646839;87;24789;-90
2022/02/07 00:35:58;;;;;;;;;;;;;;;5.90;100.00;96340.38;1647839;87;22316;-86
2022/02/07 00:38:25;;;;;;;;;;;;;;;5.92;100.00;96335.89;1647188;87;25975;-88
2022/02/07 00:45:54;;;;;;;;;;;;;;;5.97;100.00;96337.63;1647011;87;24779;-86
2022/02/07 00:48:23;;;;;;;;;;;;;;;6.00;100.00;96340.45;1647503;87;22521;-86
2022/02/07 00:50:50;;;;;;;;;;;;;;;5.98;100.00;96332.78;1646055;87;26781;-86
2022/02/07 00:53:16;;;;;;;;;;;;;;;5.98;100.00;96344.47;1647799;87;24436;-88
2022/02/07 00:55:43;;;;;;;;;;;;;;;5.97;100.00;96341.52;1637417;85;20221;-89
2022/02/07 00:58:22;;;;;;;;;;;;;;;5.98;100.00;96343.64;1624160;86;24782;-89
2022/02/07 01:00:48;;;;;;;;;;;;;;;5.96;100.00;96346.83;1617066;87;21977;-88
2022/02/07 01:03:14;;;;;;;;;;;;;;;5.92;100.00;96332.00;1627311;87;26169;-89
2022/02/07 01:05:43;;;;;;;;;;;;;;;5.88;100.00;96333.22;1619009;87;24475;-83
2022/02/07 01:08:09;;;;;;;;;;;;;;;5.85;100.00;96323.88;1626138;87;20268;-87
2022/02/07 01:13:56;;;;;;;;;;;;;;;5.81;100.00;96317.30;1622443;88;22614;-87
2022/02/07 01:16:29;;;;;;;;;;;;;;;5.78;100.00;96307.16;1622595;87;26164;-88
2022/02/07 01:22:06;;;;;;;;;;;;;;;5.75;100.00;96291.05;1622273;87;20246;-87
2022/02/07 01:51:38;;;;;;;;;;;;;;;5.49;100.00;96238.77;1620728;87;24814;-83
2022/02/07 01:56:39;;;;;;;;;;;;;;;5.51;100.00;96234.76;1633037;87;26214;-88
2022/02/07 01:59:07;;;;;;;;;;;;;;;5.50;100.00;96246.08;1646684;87;25331;-88
2022/02/07 02:01:36;;;;;;;;;;;;;;;5.51;100.00;96251.11;1646400;87;20186;-88
2022/02/07 02:04:01;;;;;;;;;;;;;;;5.51;100.00;96245.92;1647933;86;24924;-88
2022/02/07 02:06:28;;;;;;;;;;;;;;;5.52;100.00;96241.09;1646962;87;21974;-88
2022/02/07 02:08:55;;;;;;;;;;;;;;;5.53;100.00;96234.13;1646698;86;25979;-88
2022/02/07 02:11:21;;;;;;;;;;;;;;;5.55;100.00;96230.95;1647555;87;24503;-86
2022/02/07 02:17:04;;;;;;;;;;;;;;;5.54;100.00;96231.42;1646291;87;24767;-89
2022/02/07 02:35:58;;;;;;;;;;;;;;;5.55;100.00;96198.52;1648845;87;26695;-89
2022/02/07 02:38:19;;;;;;;;;;;;;;;5.56;100.00;96191.09;1642354;87;24466;-85
2022/02/07 02:46:21;;;;;;;;;;;;;;;5.56;100.00;96237.78;1647677;87;22796;-87
2022/02/07 02:48:44;;;;;;;;;;;;;;;5.54;100.00;96244.86;1645545;87;25983;-83
2022/02/07 02:51:11;;;;;;;;;;;;;;;5.54;100.00;96242.27;1647595;87;24480;-83
2022/02/07 02:53:37;;;;;;;;;;;;;;;5.53;100.00;96244.03;1647449;87;20295;-88
2022/02/07 02:56:03;;;;;;;;;;;;;;;5.53;100.00;96245.33;1649252;85;24896;-88
2022/02/07 02:58:29;;;;;;;;;;;;;;;5.52;100.00;96235.91;1657852;85;22065;-88
2022/02/07 03:00:56;;;;;;;;;;;;;;;5.54;100.00;96235.31;1658514;86;26189;-87
2022/02/07 03:03:22;;;;;;;;;;;;;;;5.55;100.00;96234.84;1657582;86;24416;-88
2022/02/07 03:05:48;;;;;;;;;;;;;;;5.55;100.00;96223.98;1658276;86;20218;-88
2022/02/07 03:08:16;;;;;;;;;;;;;;;5.54;100.00;96195.09;1657834;86;24741;-89
2022/02/07 03:11:05;;;;;;;;;;;;;;;5.56;100.00;96178.11;1658100;86;22868;-91
2022/02/07 03:18:41;;;;;;;;;;;;;;;5.48;100.00;96191.73;1656977;86;20501;-86
2022/02/07 03:21:07;;;;;;;;;;;;;;;5.48;100.00;96200.33;1655177;86;24833;-88
2022/02/07 03:23:33;;;;;;;;;;;;;;;5.47;100.00;96194.80;1655108;86;22040;-88
2022/02/07 03:25:59;;;;;;;;;;;;;;;5.47;100.00;96191.38;1657372;86;26074;-87
2022/02/07 03:28:26;;;;;;;;;;;;;;;5.44;100.00;96195.07;1656774;86;24515;-88
2022/02/07 03:30:53;;;;;;;;;;;;;;;5.45;100.00;96201.88;1656303;86;20480;-85
2022/02/07 03:33:19;;;;;;;;;;;;;;;5.46;100.00;96211.78;1657107;86;24809;-86
2022/02/07 03:35:53;;;;;;;;;;;;;;;5.46;100.00;96214.38;1659054;86;20171;-88
2022/02/07 03:38:19;;;;;;;;;;;;;;;5.47;100.00;96216.84;1656288;86;26132;-86
2022/02/07 03:40:46;;;;;;;;;;;;;;;5.48;100.00;96218.49;1655289;86;24555;-86
2022/02/07 03:43:12;;;;;;;;;;;;;;;5.47;100.00;96222.03;1655625;86;20219;-86
2022/02/07 03:45:38;;;;;;;;;;;;;;;5.46;100.00;96224.27;1656556;86;24826;-86
2022/02/07 03:48:04;;;;;;;;;;;;;;;5.45;100.00;96225.22;1656101;86;22042;-86
2022/02/07 03:50:30;;;;;;;;;;;;;;;5.43;100.00;96228.44;1654872;86;26063;-84
2022/02/07 03:52:56;;;;;;;;;;;;;;;5.43;100.00;96232.33;1655731;86;24120;-84
2022/02/07 03:55:26;;;;;;;;;;;;;;;5.42;100.00;96233.27;1655508;85;20226;-84
2022/02/07 03:57:52;;;;;;;;;;;;;;;5.43;100.00;96240.11;1651770;86;24774;-86
2022/02/07 04:00:18;;;;;;;;;;;;;;;5.42;100.00;96241.05;1649552;86;22204;-86
2022/02/07 04:02:49;;;;;;;;;;;;;;;5.45;100.00;96243.37;1650528;86;25998;-83
2022/02/07 04:07:45;;;;;;;;;;;;;;;5.46;100.00;96248.09;1640783;86;20554;-83
2022/02/07 04:10:11;;;;;;;;;;;;;;;5.45;100.00;96249.06;1650895;86;24879;-87
2022/02/07 04:12:46;;;;;;;;;;;;;;;5.43;100.00;96255.67;1652093;86;22678;-87
2022/02/07 04:15:14;;;;;;;;;;;;;;;5.43;100.00;96254.38;1649601;86;26375;-88
2022/02/07 04:17:42;;;;;;;;;;;;;;;5.42;100.00;96257.91;1651300;86;24466;-83
2022/02/07 04:20:04;;;;;;;;;;;;;;;5.41;100.00;96256.73;1650458;86;20256;-83
2022/02/07 04:22:30;;;;;;;;;;;;;;;5.40;100.00;96258.50;1650331;86;24959;-83
2022/02/07 04:25:02;;;;;;;;;;;;;;;5.40;100.00;96266.79;1635823;87;21983;-90
2022/02/07 04:27:24;;;;;;;;;;;;;;;5.40;100.00;96273.27;1635415;87;26005;-86
2022/02/07 04:29:50;;;;;;;;;;;;;;;5.40;100.00;96277.95;1636151;87;24506;-86
2022/02/07 04:32:16;;;;;;;;;;;;;;;5.38;100.00;96286.36;1631418;87;20345;-86
2022/02/07 04:34:42;;;;;;;;;;;;;;;5.36;100.00;96286.12;1634198;87;24759;-86
2022/02/07 04:37:09;;;;;;;;;;;;;;;5.35;100.00;96291.78;1633311;87;20274;-86
2022/02/07 04:39:35;;;;;;;;;;;;;;;5.35;100.00;96301.33;1635123;87;26065;-88
2022/02/07 04:42:06;;;;;;;;;;;;;;;5.34;100.00;96300.54;1640211;87;24456;-87
2022/02/07 04:44:38;;;;;;;;;;;;;;;5.34;100.00;96298.42;1634875;87;20541;-84
2022/02/07 04:47:19;;;;;;;;;;;;;;;5.32;100.00;96295.95;1635308;87;24861;-85
2022/02/07 04:58:06;;;;;;;;;;;;;;;5.23;100.00;96313.57;1608924;88;20179;-86
2022/02/07 05:03:13;;;;;;;;;;;;;;;5.19;100.00;96328.18;1629700;86;22231;-85
2022/02/07 05:13:48;;;;;;;;;;;;;;;5.17;100.00;96350.84;1623181;87;20481;-85
2022/02/07 05:16:28;;;;;;;;;;;;;;;5.12;100.00;96347.33;1635232;87;22034;-88
2022/02/07 05:19:01;;;;;;;;;;;;;;;5.09;100.00;96346.27;1637191;86;26905;-88
2022/02/07 05:21:26;;;;;;;;;;;;;;;5.06;100.00;96341.34;1634900;87;24481;-87
2022/02/07 05:23:53;;;;;;;;;;;;;;;5.02;100.00;96336.86;1636100;87;20259;-82
2022/02/07 05:26:19;;;;;;;;;;;;;;;5.00;100.00;96350.44;1636013;86;24832;-83
2022/02/07 05:28:46;;;;;;;;;;;;;;;4.99;100.00;96346.66;1637909;87;21961;-83
2022/02/07 05:31:13;;;;;;;;;;;;;;;4.97;100.00;96362.80;1636911;87;25960;-83
2022/02/07 05:33:39;;;;;;;;;;;;;;;4.97;100.00;96368.81;1637059;86;24509;-83
2022/02/07 05:36:08;;;;;;;;;;;;;;;4.97;100.00;96371.88;1636229;87;20348;-83
2022/02/07 05:38:36;;;;;;;;;;;;;;;4.97;100.00;96378.36;1635980;87;24864;-83
2022/02/07 05:41:04;;;;;;;;;;;;;;;4.96;100.00;96379.33;1637277;86;22195;-82
2022/02/07 05:43:37;;;;;;;;;;;;;;;4.95;100.00;96387.57;1637620;86;26049;-83
2022/02/07 05:46:03;;;;;;;;;;;;;;;4.93;100.00;96409.36;1637477;87;24462;-83
2022/02/07 05:48:29;;;;;;;;;;;;;;;4.72;100.00;96525.89;1636746;86;20491;-87
2022/02/07 05:50:55;;;;;;;;;;;;;;;4.09;100.00;96540.65;1637356;87;24765;-87
2022/02/07 05:53:21;;;;;;;;;;;;;;;3.52;100.00;96559.47;1637124;86;21906;-89
2022/02/07 05:55:53;;;;;;;;;;;;;;;3.10;100.00;96560.75;1636518;86;26016;-89
2022/02/07 05:58:24;;;;;;;;;;;;;;;2.77;100.00;96578.59;1643865;87;24546;-89
2022/02/07 06:00:51;;;;;;;;;;;;;;;2.52;100.00;96584.11;1645353;87;20241;-89
2022/02/07 06:03:20;;;;;;;;;;;;;;;2.34;100.00;96592.27;1644599;85;24837;-89
2022/02/07 06:05:46;;;;;;;;;;;;;;;2.24;100.00;96593.33;1646802;87;21937;-89
2022/02/07 06:08:14;;;;;;;;;;;;;;;2.14;100.00;96603.06;1648366;87;26005;-89
2022/02/07 06:10:40;;;;;;;;;;;;;;;2.08;100.00;96605.12;1647646;87;24513;-84
2022/02/07 06:13:08;;;;;;;;;;;;;;;2.01;100.00;96612.92;1647156;85;20223;-84
2022/02/07 06:15:34;;;;;;;;;;;;;;;1.96;100.00;96611.09;1647886;86;24876;-84
2022/02/07 06:18:01;;;;;;;;;;;;;;;1.95;100.00;96617.18;1648438;85;20353;-84
2022/02/07 06:20:27;;;;;;;;;;;;;;;1.96;100.00;96621.88;1646060;87;25959;-84
2022/02/07 06:22:53;;;;;;;;;;;;;;;1.98;100.00;96617.42;1648200;87;24532;-84
2022/02/07 06:25:19;;;;;;;;;;;;;;;1.97;100.00;96623.50;1647005;87;20258;-84
2022/02/07 06:27:45;;;;;;;;;;;;;;;2.00;100.00;96625.91;1646872;87;25313;-84
2022/02/07 06:30:11;;;;;;;;;;;;;;;2.00;100.00;96628.02;1647826;87;22169;-84
2022/02/07 06:32:38;;;;;;;;;;;;;;;2.03;100.00;96634.27;1647781;86;26050;-87
2022/02/07 06:35:05;;;;;;;;;;;;;;;2.08;100.00;96642.98;1646461;87;24454;-87
2022/02/07 06:37:31;;;;;;;;;;;;;;;2.09;100.00;96654.97;1647174;87;20514;-87
2022/02/07 06:39:57;;;;;;;;;;;;;;;2.08;100.00;96655.42;1647292;87;24729;-87
2022/02/07 06:42:23;;;;;;;;;;;;;;;2.13;100.00;96668.52;1647155;87;22025;-87
2022/02/07 06:44:49;;;;;;;;;;;;;;;2.19;100.00;96688.28;1649407;85;26109;-86
2022/02/07 06:47:15;;;;;;;;;;;;;;;2.24;100.00;96697.84;1648003;85;24440;-83
2022/02/07 06:49:41;;;;;;;;;;;;;;;2.27;100.00;96702.82;1647337;87;20270;-83
2022/02/07 06:52:07;;;;;;;;;;;;;;;2.31;100.00;96709.43;1647897;85;24812;-84
2022/02/07 06:54:34;;;;;;;;;;;;;;;2.36;100.00;96726.73;1646202;87;20334;-83
2022/02/07 06:57:01;;;;;;;;;;;;;;;2.41;100.00;96743.21;1647153;87;26196;-84
2022/02/07 06:59:30;;;;;;;;;;;;;;;2.40;100.00;96751.91;1646474;85;24278;-83
2022/02/07 07:02:01;;;;;;;;;;;;;;;2.41;100.00;96762.58;1650105;86;20321;-90
2022/02/07 07:04:29;;;;;;;;;;;;;;;2.41;100.00;96762.11;1652392;86;24773;-89
2022/02/07 07:06:55;;;;;;;;;;;;;;;2.39;100.00;96779.94;1652085;86;21984;-88
2022/02/07 07:09:23;;;;;;;;;;;;;;;2.36;100.00;96786.56;1627118;87;26112;-88
2022/02/07 07:11:49;;;;;;;;;;;;;;;2.35;100.00;96787.02;1628926;87;24316;-86
2022/02/07 07:14:27;;;;;;;;;;;;;;;2.37;100.00;96794.22;1625887;87;20542;-86
2022/02/07 07:16:52;;;;;;;;;;;;;;;2.41;100.00;96799.55;1623823;87;25666;-86
2022/02/07 07:19:19;;;;;;;;;;;;;;;2.42;100.00;96815.41;1628058;87;22026;-86
2022/02/07 07:21:46;;;;;;;;;;;;;;;2.40;100.00;96817.24;1627146;87;26047;-86
2022/02/07 07:24:12;;;;;;;;;;;;;;;2.42;100.00;96830.06;1629406;87;24543;-89
2022/02/07 07:26:44;;;;;;;;;;;;;;;2.42;100.00;96833.94;1630548;87;20197;-83
2022/02/07 07:29:16;;;;;;;;;;;;;;;2.45;100.00;96820.85;1629723;87;24774;-84
2022/02/07 07:31:46;;;;;;;;;;;;;;;2.45;100.00;96835.88;1624123;87;22104;-83
2022/02/07 07:34:09;;;;;;;;;;;;;;;2.45;100.00;96839.75;1626953;87;25996;-83
2022/02/07 07:36:35;;;;;;;;;;;;;;;2.44;100.00;96840.67;1623938;87;24439;-84
2022/02/07 07:39:02;;;;;;;;;;;;;;;2.45;100.00;96838.92;1625850;87;20261;-87
2022/02/07 07:41:28;;;;;;;;;;;;;;;2.46;100.00;96842.67;1623127;87;24925;-87
2022/02/07 07:43:54;;;;;;;;;;;;;;;2.47;100.00;96852.08;1628228;87;22318;-87
2022/02/07 07:46:26;;;;;;;;;;;;;;;2.48;100.00;96855.50;1626051;87;25948;-87
2022/02/07 07:48:59;;;;;;;;;;;;;;;2.50;100.00;96860.11;1628152;87;24436;-86
2022/02/07 07:54:28;;;;;;;;;;;;;;;2.52;100.00;96859.53;1630275;87;25069;-88
2022/02/07 08:02:23;;;;;;;;;;;;;;;2.61;100.00;96873.18;1631915;87;24708;-85
2022/02/07 08:04:48;;;;;;;;;;;;;;;2.63;100.00;96886.80;1633177;87;20311;-85
2022/02/07 08:07:24;;;;;;;;;;;;;;;2.65;100.00;96891.87;1632946;87;25497;-85
2022/02/07 08:12:35;;;;;;;;;;;;;;;2.72;100.00;96907.36;1630557;87;26050;-85
2022/02/07 08:15:00;;;;;;;;;;;;;;;2.78;100.00;96918.12;1603930;87;24507;-86
2022/02/07 08:17:27;;;;;;;;;;;;;;;2.83;100.00;96929.02;1631041;87;20268;-85
2022/02/07 08:19:53;;;;;;;;;;;;;;;2.85;100.00;96942.64;1634281;87;24860;-85
2022/02/07 08:22:20;;;;;;;;;;;;;;;2.87;100.00;96956.31;1632624;87;22056;-89
2022/02/07 08:24:46;;;;;;;;;;;;;;;2.79;100.00;96979.66;1631046;87;26052;-89
2022/02/07 08:27:12;;;;;;;;;;;;;;;2.68;100.00;96984.65;1635139;87;24516;-88
2022/02/07 08:29:38;;;;;;;;;;;;;;;2.59;100.00;96991.68;1632844;87;20415;-88
2022/02/07 08:32:04;;;;;;;;;;;;;;;2.50;100.00;97000.37;1633051;87;20220;-89
2022/02/07 08:34:31;;;;;;;;;;;;;;;2.37;100.00;96987.81;1631329;87;21930;-88
2022/02/07 08:37:02;;;;;;;;;;;;;;;2.26;100.00;96987.63;1631890;87;26107;-89
2022/02/07 08:39:25;;;;;;;;;;;;;;;2.14;100.00;96997.39;1632187;87;24476;-89
2022/02/07 08:41:51;;;;;;;;;;;;;;;2.08;100.00;97002.91;1625970;87;20176;-89
2022/02/07 08:44:18;;;;;;;;;;;;;;;2.04;100.00;96986.78;1634490;87;20322;-85
2022/02/07 08:46:44;;;;;;;;;;;;;;;2.02;100.00;97001.52;1629318;87;21965;-85
2022/02/07 08:49:10;;;;;;;;;;;;;;;2.02;100.00;97002.80;1638303;86;26059;-86
2022/02/07 08:51:37;;;;;;;;;;;;;;;2.03;100.00;97010.09;1631550;87;24525;-87
2022/02/07 08:54:06;;;;;;;;;;;;;;;2.02;100.00;97018.73;1633631;87;20601;-86
2022/02/07 08:59:17;;;;;;;;;;;;;;;2.08;100.00;97028.25;1641159;86;21965;-88
2022/02/07 09:01:51;;;;;;;;;;;;;;;2.11;100.00;97024.67;1648072;86;26048;-85
2022/02/07 09:05:17;;;;;;;;;;;;;;;2.12;100.00;97022.47;1667848;86;24494;-87
2022/02/07 09:06:58;;;;;;;;;;;;;;;2.14;100.00;97019.78;1661978;86;20261;-87
2022/02/07 09:09:19;;;;;;;;;;;;;;;2.13;100.00;97010.41;1668018;85;25006;-87
2022/02/07 09:11:44;;;;;;;;;;;;;;;2.13;100.00;97018.95;1669155;86;22882;-87
2022/02/07 09:14:12;;;;;;;;;;;;;;;2.11;100.00;97014.35;1669548;86;26002;-87
2022/02/07 09:16:39;;;;;;;;;;;;;;;2.17;100.00;97015.74;1669234;86;24522;-85
2022/02/07 09:19:05;;;;;;;;;;;;;;;2.21;100.00;97019.34;1669178;85;20166;-85
2022/02/07 09:21:31;;;;;;;;;;;;;;;2.26;100.00;97028.09;1669062;86;24793;-85
2022/02/07 09:23:57;;;;;;;;;;;;;;;2.32;100.00;97040.64;1669890;86;21928;-85
2022/02/07 09:26:24;;;;;;;;;;;;;;;2.34;100.00;97042.22;1659364;86;25969;-85
2022/02/07 09:28:50;;;;;;;;;;;;;;;2.39;100.00;97050.52;1669768;85;24331;-85
2022/02/07 09:31:16;;;;;;;;;;;;;;;2.40;100.00;97064.27;1670509;86;20422;-85
2022/02/07 09:33:47;;;;;;;;;;;;;;;2.43;100.00;97073.94;1666260;85;24599;-86
2022/02/07 09:36:13;;;;;;;;;;;;;;;2.44;100.00;97078.64;1668080;85;22876;-86
2022/02/07 09:38:39;;;;;;;;;;;;;;;2.42;100.00;97088.22;1669445;86;26077;-87
2022/02/07 09:41:06;;;;;;;;;;;;;;;2.39;100.00;97090.53;1668765;86;24510;-86
2022/02/07 09:43:35;;;;;;;;;;;;;;;2.41;100.00;97108.50;1670341;86;20281;-83
2022/02/07 09:46:06;;;;;;;;;;;;;;;2.41;100.00;97096.42;1670252;86;24761;-88
2022/02/07 09:48:31;;;;;;;;;;;;;;;2.40;100.00;97118.48;1670118;84;22018;-89
2022/02/07 09:50:57;;;;;;;;;;;;;;;2.40;100.00;97117.19;1669542;86;25999;-89
2022/02/07 09:53:27;;;;;;;;;;;;;;;2.40;100.00;97126.22;1670066;86;25081;-89
2022/02/07 09:55:55;;;;;;;;;;;;;;;2.41;100.00;97131.73;1669772;86;20523;-88
2022/02/07 09:58:21;;;;;;;;;;;;;;;2.37;100.00;97136.25;1667365;86;24954;-88
2022/02/07 10:00:48;;;;;;;;;;;;;;;2.38;100.00;97142.25;1669776;86;22055;-89
2022/02/07 10:03:24;;;;;;;;;;;;;;;2.34;100.00;97142.06;1669902;86;26618;-83
2022/02/07 10:05:53;;;;;;;;;;;;;;;2.37;100.00;97138.83;1668251;85;24564;-83
2022/02/07 10:11:21;;;;;;;;;;;;;;;2.48;100.00;97142.08;1669149;85;24796;-83
2022/02/07 10:13:45;;;;;;;;;;;;;;;2.55;100.00;97147.27;1663364;86;22031;-83
2022/02/07 10:16:23;;;;;;;;;;;;;;;2.60;100.00;97159.91;1667359;86;26025;-83
2022/02/07 10:40:26;;;;;;;;;;;;;;;2.64;100.00;97179.46;1670374;86;22047;-89
2022/02/07 10:46:10;;;;;;;;;;;;;;;2.74;100.00;97181.41;1670756;85;25351;-88
2022/02/07 10:48:43;;;;;;;;;;;;;;;2.76;100.00;97183.91;1668432;86;20377;-89
2022/02/07 10:51:25;;;;;;;;;;;;;;;2.74;100.00;97191.75;1669857;85;24661;-89
2022/02/07 10:54:05;;;;;;;;;;;;;;;2.66;100.00;97208.62;1669400;86;22617;-89
2022/02/07 10:56:42;;;;;;;;;;;;;;;2.61;100.00;97215.80;1669675;86;26747;-89
2022/02/07 10:59:07;;;;;;;;;;;;;;;2.61;100.00;97217.09;1664617;84;37715;-89
2022/02/07 11:02:28;;;;;;;;;;;;;;;2.63;100.00;97228.16;1648648;85;20245;-88
2022/02/07 11:04:30;;;;;;;;;;;;;;;2.65;100.00;97219.41;1642702;87;24826;-89
2022/02/07 11:06:58;;;;;;;;;;;;;;;2.65;100.00;97220.70;1646913;86;22217;-89
2022/02/07 11:09:38;;;;;;;;;;;;;;;2.66;100.00;97226.24;1647647;87;26671;-89
2022/02/07 11:14:56;;;;;;;;;;;;;;;2.74;100.00;97229.66;1644721;87;20350;-89
2022/02/07 11:20:27;;;;;;;;;;;;;;;2.90;100.00;97236.89;1648354;87;23625;-85
2022/02/07 11:23:14;;;;;;;;;;;;;;;2.98;100.00;97239.88;1644921;87;26139;-83
2022/02/07 11:28:14;;;;;;;;;;;;;;;3.10;100.00;97243.49;1647924;87;20517;-83
2022/02/07 11:30:49;;;;;;;;;;;;;;;3.11;100.00;97234.83;1646529;86;24824;-83
2022/02/07 11:33:30;;;;;;;;;;;;;;;3.05;100.00;97241.19;1645084;87;21842;-83
2022/02/07 11:35:56;;;;;;;;;;;;;;;2.99;100.00;97260.92;1627654;87;26079;-83
2022/02/07 11:38:23;;;;;;;;;;;;;;;2.83;100.00;97274.36;1645012;87;20344;-83
2022/02/07 11:40:57;;;;;;;;;;;;;;;2.64;100.00;97291.80;1646180;86;20259;-83
2022/02/07 11:43:24;;;;;;;;;;;;;;;2.40;100.00;97301.77;1645841;85;25403;-83
2022/02/07 11:46:05;;;;;;;;;;;;;;;2.23;100.00;97314.77;1644828;85;22004;-83
2022/02/07 11:48:32;;;;;;;;;;;;;;;2.09;100.00;97298.27;1645218;87;26248;-89
2022/02/07 11:50:59;;;;;;;;;;;;;;;2.05;100.00;97310.13;1643873;86;24398;-90
2022/02/07 11:53:33;;;;;;;;;;;;;;;2.05;100.00;97304.97;1646445;85;20300;-89
2022/02/07 11:56:07;;;;;;;;;;;;;;;2.04;100.00;97309.75;1637081;87;24764;-89
2022/02/07 11:58:55;;;;;;;;;;;;;;;2.08;100.00;97321.11;1633500;86;22022;-87
2022/02/07 12:01:24;;;;;;;;;;;;;;;2.15;100.00;97306.59;1647091;85;26021;-87
2022/02/07 12:03:54;;;;;;;;;;;;;;;2.25;100.00;97307.30;1645764;86;24887;-87
2022/02/07 12:06:24;;;;;;;;;;;;;;;2.40;100.00;97314.69;1646969;85;20268;-87
2022/02/07 12:08:50;;;;;;;;;;;;;;;2.58;100.00;97306.34;1643757;85;24764;-87
2022/02/07 12:11:17;;;;;;;;;;;;;;;2.77;100.00;97314.75;1644911;85;21955;-87
2022/02/07 12:13:44;;;;;;;;;;;;;;;2.88;100.00;97322.27;1646305;86;26067;-87
2022/02/07 12:16:12;;;;;;;;;;;;;;;2.90;100.00;97311.36;1642895;86;24488;-87
2022/02/07 12:18:38;;;;;;;;;;;;;;;2.93;100.00;97320.25;1646654;85;20342;-85
2022/02/07 12:21:17;;;;;;;;;;;;;;;2.92;100.00;97328.91;1645630;85;24974;-87
2022/02/07 12:23:46;;;;;;;;;;;;;;;2.89;100.00;97352.33;1646061;87;22043;-87
2022/02/07 12:26:17;;;;;;;;;;;;;;;2.85;100.00;97355.17;1646238;86;26016;-86
2022/02/07 12:28:49;;;;;;;;;;;;;;;2.72;100.00;97370.55;1644177;87;24482;-83
2022/02/07 12:31:20;;;;;;;;;;;;;;;2.56;100.00;97383.09;1644956;86;20266;-84
2022/02/07 12:33:57;;;;;;;;;;;;;;;2.41;100.00;97392.48;1647875;86;24742;-84
2022/02/07 12:36:24;;;;;;;;;;;;;;;2.15;100.00;97394.34;1648727;85;21973;-83
2022/02/07 12:38:51;;;;;;;;;;;;;;;1.98;100.00;97390.89;1646797;86;26117;-84
2022/02/07 12:41:18;;;;;;;;;;;;;;;1.86;100.00;97413.45;1645104;86;24492;-83
2022/02/07 12:43:45;;;;;;;;;;;;;;;1.77;100.00;97402.33;1646619;86;20577;-83
2022/02/07 12:46:16;;;;;;;;;;;;;;;1.68;100.00;97410.55;1648375;87;24925;-84
2022/02/07 12:48:51;;;;;;;;;;;;;;;1.65;100.00;97421.83;1647071;86;22038;-84
2022/02/07 12:51:13;;;;;;;;;;;;;;;1.64;100.00;97419.32;1646506;87;26097;-87
2022/02/07 12:53:40;;;;;;;;;;;;;;;1.63;100.00;97420.26;1646678;87;24471;-87
2022/02/07 12:56:07;;;;;;;;;;;;;;;1.61;100.00;97420.78;1646660;87;20230;-86
2022/02/07 12:58:34;;;;;;;;;;;;;;;1.63;100.00;97417.23;1646871;86;24750;-87
2022/02/07 13:01:17;;;;;;;;;;;;;;;1.69;100.00;97416.08;1653156;85;21524;-87
2022/02/07 13:03:48;;;;;;;;;;;;;;;1.73;100.00;97426.61;1657854;86;26089;-88
2022/02/07 13:06:31;;;;;;;;;;;;;;;1.88;100.00;97432.73;1655216;85;24517;-88
2022/02/07 13:09:00;;;;;;;;;;;;;;;2.01;100.00;97438.94;1656709;86;20251;-87
2022/02/07 13:11:31;;;;;;;;;;;;;;;2.07;100.00;97438.14;1657507;86;25479;-86
2022/02/07 13:13:54;;;;;;;;;;;;;;;2.08;100.00;97436.39;1654175;86;22063;-84
2022/02/07 13:16:22;;;;;;;;;;;;;;;2.13;100.00;97436.19;1654368;86;26015;-87
2022/02/07 13:18:56;;;;;;;;;;;;;;;2.10;100.00;97431.55;1654853;86;25120;-87
2022/02/07 13:21:22;;;;;;;;;;;;;;;2.09;100.00;97438.06;1655671;86;20222;-84
2022/02/07 13:23:48;;;;;;;;;;;;;;;2.12;100.00;97455.99;1655793;86;24793;-85
2022/02/07 13:26:16;;;;;;;;;;;;;;;2.15;100.00;97458.85;1656546;86;21925;-84
2022/02/07 13:28:43;;;;;;;;;;;;;;;2.15;100.00;97467.44;1655064;86;26067;-84
2022/02/07 13:31:10;;;;;;;;;;;;;;;2.17;100.00;97455.75;1633808;86;24290;-85
2022/02/07 13:33:49;;;;;;;;;;;;;;;2.20;100.00;97468.02;1655235;86;20271;-85
2022/02/07 13:36:30;;;;;;;;;;;;;;;2.32;100.00;97470.43;1656629;86;25619;-89
2022/02/07 13:39:00;;;;;;;;;;;;;;;2.45;100.00;97476.63;1657996;86;22087;-88
2022/02/07 13:41:28;;;;;;;;;;;;;;;2.54;100.00;97469.68;1655792;86;23278;-87
2022/02/07 13:43:56;;;;;;;;;;;;;;;2.66;100.00;97475.48;1656269;86;24512;-87
2022/02/07 13:46:24;;;;;;;;;;;;;;;2.77;100.00;97482.20;1657740;85;20231;-86
2022/02/07 13:48:50;;;;;;;;;;;;;;;2.87;100.00;97482.08;1653347;85;24824;-86
2022/02/07 13:51:16;;;;;;;;;;;;;;;3.02;100.00;97497.66;1657172;86;21957;-88
2022/02/07 13:53:43;;;;;;;;;;;;;;;3.04;100.00;97501.84;1656653;86;25996;-87
2022/02/07 13:56:09;;;;;;;;;;;;;;;3.12;100.00;97506.56;1656066;86;24516;-87
2022/02/07 13:58:37;;;;;;;;;;;;;;;3.21;100.00;97503.50;1657628;84;20315;-86
2022/02/07 14:01:06;;;;;;;;;;;;;;;3.27;100.00;97506.55;1659235;86;24870;-83
2022/02/07 14:03:40;;;;;;;;;;;;;;;3.33;100.00;97509.26;1668232;86;22023;-84
2022/02/07 14:06:12;;;;;;;;;;;;;;;3.29;100.00;97524.58;1668349;85;26210;-85
2022/02/07 14:08:40;;;;;;;;;;;;;;;3.25;100.00;97537.30;1670602;86;24401;-84
2022/02/07 14:11:10;;;;;;;;;;;;;;;3.19;100.00;97538.47;1668905;86;20375;-84
2022/02/07 14:13:37;;;;;;;;;;;;;;;3.15;100.00;97551.66;1668697;85;25466;-84
2022/02/07 14:16:07;;;;;;;;;;;;;;;3.14;100.00;97555.15;1671571;84;22142;-84
2022/02/07 14:18:35;;;;;;;;;;;;;;;3.11;100.00;97569.55;1674534;84;25883;-84
2022/02/07 14:21:10;;;;;;;;;;;;;;;3.07;100.00;97575.77;1679439;84;25322;-84
2022/02/07 14:23:37;;;;;;;;;;;;;;;3.08;100.00;97574.41;1669741;85;20529;-84
2022/02/07 14:26:04;;;;;;;;;;;;;;;3.05;100.00;97572.00;1669881;86;25146;-84
2022/02/07 14:28:31;;;;;;;;;;;;;;;3.04;100.00;97579.83;1671370;84;21517;-84
2022/02/07 14:30:58;;;;;;;;;;;;;;;3.04;100.00;97575.95;1641780;86;26101;-84
2022/02/07 14:33:24;;;;;;;;;;;;;;;3.07;100.00;97581.78;1670379;84;24443;-84
2022/02/07 14:35:51;;;;;;;;;;;;;;;3.10;100.00;97589.84;1671008;84;20262;-84
2022/02/07 14:38:17;;;;;;;;;;;;;;;3.13;100.00;97589.66;1671574;84;24801;-84
2022/02/07 14:40:43;;;;;;;;;;;;;;;3.12;100.00;97598.33;1670160;84;21984;-84
2022/02/07 14:43:16;;;;;;;;;;;;;;;3.15;100.00;97604.19;1640542;86;26014;-84
2022/02/07 14:45:55;;;;;;;;;;;;;;;3.17;100.00;97610.09;1668520;86;24484;-84
2022/02/07 14:48:12;;;;;;;;;;;;;;;3.19;100.00;97603.56;1668258;86;20263;-83
2022/02/07 14:50:38;;;;;;;;;;;;;;;3.13;100.00;97611.18;1669603;86;24787;-83
2022/02/07 14:53:06;;;;;;;;;;;;;;;3.06;100.00;97618.88;1671690;84;22171;-83
2022/02/07 14:55:32;;;;;;;;;;;;;;;3.03;100.00;97628.09;1671423;86;26776;-84
2022/02/07 14:57:58;;;;;;;;;;;;;;;3.02;100.00;97632.88;1670733;86;24613;-83
2022/02/07 15:00:26;;;;;;;;;;;;;;;3.01;100.00;97639.41;1668814;84;20242;-83
2022/02/07 15:02:53;;;;;;;;;;;;;;;3.03;100.00;97655.23;1656941;86;24963;-83
2022/02/07 15:05:19;;;;;;;;;;;;;;;3.04;100.00;97643.15;1657417;84;22049;-83
2022/02/07 15:07:46;;;;;;;;;;;;;;;3.03;100.00;97655.23;1656296;86;26098;-83
2022/02/07 15:10:12;;;;;;;;;;;;;;;3.03;100.00;97658.27;1656586;86;24519;-83
2022/02/07 15:12:38;;;;;;;;;;;;;;;2.99;100.00;97661.94;1658908;84;20408;-83
2022/02/07 15:15:07;;;;;;;;;;;;;;;3.00;100.00;97657.96;1657459;85;24966;-83
2022/02/07 15:17:34;;;;;;;;;;;;;;;3.02;100.00;97663.06;1648306;86;22012;-83